createdAt,value
2022-09-06T00:01:11.556Z,26.14
2022-09-06T00:04:15.540Z,26.13
2022-09-06T00:07:18.024Z,26.07
2022-09-06T00:10:20.777Z,26.05
2022-09-06T00:13:23.190Z,26.01
2022-09-06T00:16:30.155Z,25.97
2022-09-06T00:19:32.822Z,25.96
2022-09-06T00:22:37.109Z,25.91
2022-09-06T00:25:39.233Z,25.94
2022-09-06T00:28:42.188Z,25.87
2022-09-06T00:31:45.669Z,25.87
2022-09-06T00:34:48.201Z,25.87
2022-09-06T00:37:51.480Z,25.88
2022-09-06T00:40:54.206Z,25.81
2022-09-06T00:43:56.906Z,25.83
2022-09-06T00:46:59.617Z,25.77
2022-09-06T00:50:03.230Z,25.77
2022-09-06T00:53:06.006Z,25.67
2022-09-06T00:56:08.251Z,25.69
2022-09-06T00:59:11.157Z,25.39
2022-09-06T01:02:13.462Z,25.50
2022-09-06T01:05:17.050Z,25.32
2022-09-06T01:08:31.341Z,25.35
2022-09-06T01:11:41.677Z,25.37
2022-09-06T01:14:56.016Z,25.46
2022-09-06T01:18:31.751Z,25.54
2022-09-06T01:21:40.163Z,25.59
2022-09-06T01:25:14.141Z,25.62
2022-09-06T01:28:37.681Z,25.60
2022-09-06T01:31:55.101Z,25.57
2022-09-06T01:35:32.277Z,25.53
2022-09-06T01:38:36.018Z,25.27
2022-09-06T01:41:38.191Z,25.11
2022-09-06T01:44:45.824Z,24.86
2022-09-06T01:47:56.761Z,24.74
2022-09-06T01:51:19.792Z,24.99
2022-09-06T01:54:24.900Z,25.19
2022-09-06T01:57:53.112Z,25.25
2022-09-06T02:01:04.994Z,25.30
2022-09-06T02:04:12.955Z,25.32
2022-09-06T02:07:26.715Z,25.37
2022-09-06T02:10:36.737Z,25.36
2022-09-06T02:13:45.597Z,25.30
2022-09-06T02:16:51.239Z,25.29
2022-09-06T02:20:02.639Z,25.29
2022-09-06T02:23:08.796Z,25.27
2022-09-06T02:26:27.680Z,25.32
2022-09-06T02:29:30.311Z,25.29
2022-09-06T02:32:37.635Z,25.26
2022-09-06T02:35:49.812Z,25.27
2022-09-06T02:38:51.954Z,25.23
2022-09-06T02:41:55.245Z,25.20
2022-09-06T02:44:58.321Z,25.16
2022-09-06T02:48:01.184Z,25.12
2022-09-06T02:51:07.447Z,24.85
2022-09-06T02:54:09.944Z,24.10
2022-09-06T02:57:12.840Z,23.52
2022-09-06T03:00:15.389Z,23.63
2022-09-06T03:03:17.747Z,23.56
2022-09-06T03:06:20.267Z,23.81
2022-09-06T03:09:22.598Z,23.35
2022-09-06T03:12:25.079Z,22.27
2022-09-06T03:15:27.110Z,22.75
2022-09-06T03:18:31.063Z,23.23
2022-09-06T03:21:33.245Z,23.66
2022-09-06T03:24:35.517Z,23.76
2022-09-06T03:27:38.492Z,23.32
2022-09-06T03:30:44.798Z,23.53
2022-09-06T03:33:47.026Z,23.86
2022-09-06T03:36:49.401Z,24.18
2022-09-06T03:39:51.724Z,24.37
2022-09-06T03:42:54.314Z,24.50
2022-09-06T03:45:58.045Z,24.60
2022-09-06T03:49:02.096Z,24.65
2022-09-06T03:52:04.494Z,24.67
2022-09-06T03:55:08.064Z,24.69
2022-09-06T03:58:10.095Z,24.74
2022-09-06T04:01:13.720Z,24.74
2022-09-06T04:04:16.489Z,24.76
2022-09-06T04:07:19.005Z,24.75
2022-09-06T04:10:21.250Z,24.78
2022-09-06T04:13:25.577Z,24.81
2022-09-06T04:16:28.006Z,24.81
2022-09-06T04:19:30.369Z,24.78
2022-09-06T04:22:32.748Z,24.75
2022-09-06T04:25:35.354Z,24.72
2022-09-06T04:28:37.625Z,24.75
2022-09-06T04:31:40.320Z,24.76
2022-09-06T04:34:42.363Z,24.81
2022-09-06T04:37:45.180Z,24.82
2022-09-06T04:40:47.455Z,24.88
2022-09-06T04:43:55.888Z,24.92
2022-09-06T04:47:15.604Z,24.98
2022-09-06T04:50:18.979Z,24.95
2022-09-06T04:53:23.877Z,24.93
2022-09-06T04:56:27.122Z,24.89
2022-09-06T04:59:29.336Z,24.86
2022-09-06T05:02:32.015Z,24.91
2022-09-06T05:05:34.243Z,24.89
2022-09-06T05:08:39.365Z,24.86
2022-09-06T05:11:41.855Z,24.79
2022-09-06T05:14:44.338Z,24.81
2022-09-06T05:17:46.749Z,24.81
2022-09-06T05:20:53.929Z,24.78
2022-09-06T05:23:58.633Z,24.79
2022-09-06T05:27:04.060Z,24.78
2022-09-06T05:30:06.649Z,24.79
2022-09-06T05:33:10.740Z,24.78
2022-09-06T05:36:13.236Z,24.79
2022-09-06T05:39:15.896Z,24.82
2022-09-06T05:42:19.554Z,24.85
2022-09-06T05:45:22.268Z,24.85
2022-09-06T05:48:24.473Z,24.86
2022-09-06T05:51:27.350Z,24.84
2022-09-06T05:54:29.478Z,24.84
2022-09-06T05:57:32.198Z,24.81
2022-09-06T06:00:34.989Z,24.79
2022-09-06T06:03:37.850Z,24.81
2022-09-06T06:06:40.091Z,24.84
2022-09-06T06:09:42.826Z,24.92
2022-09-06T06:12:45.371Z,24.89
2022-09-06T06:15:47.892Z,24.93
2022-09-06T06:18:52.526Z,24.93
2022-09-06T06:21:56.546Z,24.96
2022-09-06T06:24:59.756Z,24.95
2022-09-06T06:28:02.788Z,25.01
2022-09-06T06:31:06.819Z,24.99
2022-09-06T06:34:09.972Z,24.99
2022-09-06T06:37:12.099Z,24.98
2022-09-06T06:40:14.746Z,25.01
2022-09-06T06:43:17.862Z,24.96
2022-09-06T06:46:25.521Z,24.93
2022-09-06T06:49:28.871Z,24.92
2022-09-06T06:52:32.101Z,24.85
2022-09-06T06:55:34.729Z,24.88
2022-09-06T06:58:37.071Z,24.86
2022-09-06T07:01:40.431Z,24.91
2022-09-06T07:04:43.581Z,24.89
2022-09-06T07:07:45.771Z,24.85
2022-09-06T07:10:48.107Z,24.86
2022-09-06T07:13:50.681Z,24.89
2022-09-06T07:16:58.603Z,24.91
2022-09-06T07:20:16.504Z,24.81
2022-09-06T07:26:42.254Z,24.71
2022-09-06T07:29:44.769Z,24.74
2022-09-06T07:32:47.010Z,24.69
2022-09-06T07:36:01.325Z,24.65
2022-09-06T07:39:04.061Z,24.60
2022-09-06T07:42:06.783Z,24.61
2022-09-06T07:45:09.810Z,24.47
2022-09-06T07:48:13.532Z,24.48
2022-09-06T07:51:18.950Z,24.57
2022-09-06T07:54:30.966Z,24.69
2022-09-06T07:57:33.799Z,24.78
2022-09-06T08:00:39.040Z,24.71
2022-09-06T08:03:41.415Z,24.68
2022-09-06T08:10:17.060Z,24.81
2022-09-06T08:13:20.890Z,24.82
2022-09-06T08:16:25.445Z,24.72
2022-09-06T08:19:28.291Z,24.64
2022-09-06T08:22:34.267Z,24.79
2022-09-06T08:25:36.673Z,24.76
2022-09-06T08:28:39.054Z,24.86
2022-09-06T08:31:43.589Z,24.91
2022-09-06T08:34:45.895Z,24.98
2022-09-06T08:37:48.498Z,24.98
2022-09-06T08:40:52.739Z,25.02
2022-09-06T08:47:21.747Z,24.98
2022-09-06T08:50:26.828Z,25.06
2022-09-06T08:53:29.980Z,25.40
2022-09-06T08:56:39.942Z,25.53
2022-09-06T08:59:43.270Z,25.56
2022-09-06T09:02:52.068Z,25.60
2022-09-06T09:05:54.971Z,25.57
2022-09-06T09:09:06.037Z,25.60
2022-09-06T09:12:12.408Z,25.60
2022-09-06T09:15:19.043Z,25.59
2022-09-06T09:18:26.814Z,25.57
2022-09-06T09:21:34.763Z,25.62
2022-09-06T09:24:37.835Z,25.65
2022-09-06T09:27:41.187Z,25.63
2022-09-06T09:31:02.035Z,25.66
2022-09-06T09:34:07.694Z,25.67
2022-09-06T09:41:06.031Z,25.67
2022-09-06T09:44:16.479Z,25.70
2022-09-06T09:47:30.480Z,25.77
2022-09-06T09:50:35.614Z,25.77
2022-09-06T09:53:51.575Z,25.77
2022-09-06T09:56:54.125Z,25.78
2022-09-06T10:00:04.839Z,25.87
2022-09-06T10:03:19.242Z,25.96
2022-09-06T10:09:58.881Z,26.11
2022-09-06T10:13:22.032Z,26.22
2022-09-06T10:16:43.805Z,26.24
2022-09-06T10:19:54.343Z,26.28
2022-09-06T10:23:09.812Z,26.32
2022-09-06T10:26:37.137Z,26.42
2022-09-06T10:29:56.279Z,26.44
2022-09-06T10:33:42.384Z,26.48
2022-09-06T10:36:57.999Z,26.53
2022-09-06T10:40:28.043Z,26.62
2022-09-06T10:43:44.947Z,26.67
2022-09-06T10:46:50.935Z,26.65
2022-09-06T10:49:59.099Z,26.71
2022-09-06T10:53:13.139Z,26.76
2022-09-06T10:56:27.748Z,26.79
2022-09-06T10:59:39.259Z,26.85
2022-09-06T11:06:31.145Z,26.79
2022-09-06T11:09:45.198Z,26.65
2022-09-06T11:13:18.691Z,26.67
2022-09-06T11:16:39.417Z,26.72
2022-09-06T11:20:04.044Z,26.79
2022-09-06T11:23:34.940Z,26.86
2022-09-06T11:26:59.390Z,26.79
2022-09-06T11:30:08.583Z,26.83
2022-09-06T11:33:19.688Z,26.82
2022-09-06T11:36:44.904Z,26.75
2022-09-06T11:40:30.241Z,26.76
2022-09-06T11:43:52.185Z,26.82
2022-09-06T11:46:54.966Z,26.86
2022-09-06T11:49:57.272Z,26.89
2022-09-06T11:53:15.840Z,26.85
2022-09-06T11:56:35.654Z,26.81
2022-09-06T12:00:07.161Z,26.89
2022-09-06T12:07:04.047Z,26.96
2022-09-06T12:10:31.058Z,26.98
2022-09-06T12:13:48.047Z,26.98
2022-09-06T12:16:56.946Z,26.98
2022-09-06T12:20:07.229Z,26.90
2022-09-06T12:23:31.005Z,26.95
2022-09-06T12:27:08.521Z,27.03
2022-09-06T12:30:14.589Z,27.07
2022-09-06T12:33:33.065Z,27.12
2022-09-06T12:36:36.430Z,27.12
2022-09-06T12:39:40.567Z,27.16
2022-09-06T12:42:46.770Z,27.16
2022-09-06T12:45:52.030Z,27.16
2022-09-06T12:49:02.321Z,27.17
2022-09-06T12:52:13.662Z,27.13
2022-09-06T12:55:24.146Z,27.09
2022-09-06T12:58:32.572Z,27.04
2022-09-06T13:01:37.534Z,27.12
2022-09-06T13:05:08.214Z,27.19
2022-09-06T13:08:19.174Z,26.81
2022-09-06T13:11:46.351Z,26.39
2022-09-06T13:14:54.222Z,26.48
2022-09-06T13:18:24.188Z,26.67
2022-09-06T13:21:33.726Z,26.88
2022-09-06T13:24:36.975Z,26.85
2022-09-06T13:27:46.537Z,26.92
2022-09-06T13:31:05.411Z,26.90
2022-09-06T13:34:08.863Z,26.93
2022-09-06T13:37:12.392Z,26.63
2022-09-06T13:40:53.875Z,26.49
2022-09-06T13:44:17.987Z,26.49
2022-09-06T13:47:20.910Z,26.61
2022-09-06T13:50:28.335Z,26.71
2022-09-06T13:53:32.144Z,26.68
2022-09-06T13:56:35.660Z,26.68
2022-09-06T13:59:38.527Z,26.75
2022-09-06T14:02:42.216Z,26.78
2022-09-06T14:05:46.281Z,26.79
2022-09-06T14:09:06.254Z,26.86
2022-09-06T14:12:12.327Z,26.88
2022-09-06T14:15:16.490Z,26.89
2022-09-06T14:18:19.448Z,26.86
2022-09-06T14:21:21.945Z,26.96
2022-09-06T14:24:24.298Z,26.90
2022-09-06T14:27:27.954Z,26.82
2022-09-06T14:30:33.318Z,26.88
2022-09-06T14:33:36.684Z,26.96
2022-09-06T14:36:39.740Z,26.92
2022-09-06T14:39:43.095Z,27.00
2022-09-06T14:42:50.405Z,27.07
2022-09-06T14:45:53.410Z,27.06
2022-09-06T14:49:04.384Z,27.09
2022-09-06T14:52:07.833Z,27.06
2022-09-06T14:55:10.603Z,27.09
2022-09-06T14:58:15.554Z,27.07
2022-09-06T15:01:24.599Z,27.12
2022-09-06T15:04:30.038Z,27.03
2022-09-06T15:07:33.245Z,27.09
2022-09-06T15:10:36.459Z,26.98
2022-09-06T15:13:44.508Z,27.02
2022-09-06T15:16:55.284Z,26.98
2022-09-06T15:19:59.102Z,26.95
2022-09-06T15:26:27.897Z,26.85
2022-09-06T15:29:32.005Z,26.72
2022-09-06T15:32:35.242Z,26.58
2022-09-06T15:35:42.202Z,26.56
2022-09-06T15:38:49.813Z,26.61
2022-09-06T15:41:57.168Z,26.48
2022-09-06T15:45:02.611Z,26.56
2022-09-06T15:48:07.359Z,26.55
2022-09-06T15:51:13.001Z,26.61
2022-09-06T15:54:40.574Z,26.51
2022-09-06T15:57:44.384Z,26.47
2022-09-06T16:00:51.075Z,26.35
2022-09-06T16:04:08.247Z,26.41
2022-09-06T16:07:13.847Z,26.39
2022-09-06T16:10:17.435Z,26.24
2022-09-06T16:13:21.248Z,26.35
2022-09-06T16:16:25.106Z,26.41
2022-09-06T16:19:27.565Z,26.49
2022-09-06T16:22:31.243Z,26.41
2022-09-06T16:25:35.466Z,26.45
2022-09-06T16:28:39.050Z,26.47
2022-09-06T16:31:43.160Z,26.44
2022-09-06T16:34:46.415Z,26.51
2022-09-06T16:37:49.619Z,26.53
2022-09-06T16:40:53.351Z,26.53
2022-09-06T16:43:57.365Z,26.55
2022-09-06T16:47:04.673Z,26.44
2022-09-06T16:50:07.497Z,26.44
2022-09-06T16:53:09.909Z,26.32
2022-09-06T16:56:16.314Z,26.29
2022-09-06T16:59:19.391Z,26.25
2022-09-06T17:02:24.467Z,26.25
2022-09-06T17:05:27.769Z,26.18
2022-09-06T17:08:33.680Z,26.18
2022-09-06T17:11:38.867Z,26.18
2022-09-06T17:14:41.709Z,26.16
2022-09-06T17:17:44.740Z,26.05
2022-09-06T17:21:08.274Z,26.07
2022-09-06T17:24:10.909Z,26.09
2022-09-06T17:27:13.574Z,26.14
2022-09-06T17:30:16.214Z,26.13
2022-09-06T17:33:21.832Z,26.09
2022-09-06T17:36:30.608Z,26.08
2022-09-06T17:39:33.911Z,26.04
2022-09-06T17:42:37.604Z,26.05
2022-09-06T17:45:47.257Z,26.04
2022-09-06T17:48:50.590Z,26.00
2022-09-06T17:51:53.848Z,25.98
2022-09-06T17:54:57.297Z,25.96
2022-09-06T17:58:06.857Z,25.88
2022-09-06T18:01:14.606Z,25.90
2022-09-06T18:04:19.484Z,25.88
2022-09-06T18:07:22.583Z,25.69
2022-09-06T18:10:25.656Z,25.71
2022-09-06T18:13:27.981Z,25.73
2022-09-06T18:16:35.352Z,25.76
2022-09-06T18:19:38.965Z,25.74
2022-09-06T18:22:45.294Z,25.71
2022-09-06T18:26:01.633Z,25.42
2022-09-06T18:29:13.234Z,25.32
2022-09-06T18:32:16.676Z,25.46
2022-09-06T18:35:19.806Z,25.43
2022-09-06T18:38:28.086Z,25.35
2022-09-06T18:41:54.835Z,25.27
2022-09-06T18:44:59.767Z,25.06
2022-09-06T18:48:03.011Z,24.85
2022-09-06T18:51:17.181Z,24.78
2022-09-06T18:54:27.527Z,24.67
2022-09-06T18:57:32.074Z,24.31
2022-09-06T19:00:38.321Z,24.20
2022-09-06T19:03:43.483Z,24.06
2022-09-06T19:06:48.532Z,24.06
2022-09-06T19:09:53.157Z,24.37
2022-09-06T19:13:01.510Z,24.37
2022-09-06T19:16:08.561Z,24.62
2022-09-06T19:19:15.006Z,24.14
2022-09-06T19:22:19.728Z,24.38
2022-09-06T19:25:27.177Z,24.65
2022-09-06T19:28:34.238Z,24.65
2022-09-06T19:31:40.532Z,24.38
2022-09-06T19:34:44.470Z,23.35
2022-09-06T19:37:50.266Z,22.64
2022-09-06T19:40:55.250Z,22.33
2022-09-06T19:43:59.907Z,22.29
2022-09-06T19:47:06.128Z,21.94
2022-09-06T19:50:11.109Z,21.60
2022-09-06T19:53:17.481Z,21.96
2022-09-06T19:56:35.173Z,22.20
2022-09-06T19:59:41.759Z,22.00
2022-09-06T20:02:46.083Z,22.18
2022-09-06T20:05:51.512Z,21.89
2022-09-06T20:09:03.313Z,21.92
2022-09-06T20:12:09.099Z,22.45
2022-09-06T20:15:14.986Z,23.49
2022-09-06T20:18:22.733Z,23.94
2022-09-06T20:21:30.187Z,24.17
2022-09-06T20:24:37.065Z,24.35
2022-09-06T20:27:44.696Z,24.55
2022-09-06T20:30:53.711Z,24.31
2022-09-06T20:34:08.556Z,23.94
2022-09-06T20:37:16.391Z,24.30
2022-09-06T20:40:23.140Z,23.99
2022-09-06T20:43:29.246Z,23.08
2022-09-06T20:46:37.602Z,22.47
2022-09-06T20:49:44.429Z,22.16
2022-09-06T20:52:54.533Z,22.09
2022-09-06T20:56:01.206Z,22.29
2022-09-06T20:59:08.315Z,23.04
2022-09-06T21:02:15.126Z,23.71
2022-09-06T21:05:24.741Z,24.09
2022-09-06T21:08:34.104Z,24.31
2022-09-06T21:11:42.668Z,24.06
2022-09-06T21:14:47.508Z,23.71
2022-09-06T21:17:51.280Z,23.77
2022-09-06T21:21:05.503Z,24.20
2022-09-06T21:24:09.070Z,24.64
2022-09-06T21:27:12.827Z,25.19
2022-09-06T21:30:18.294Z,25.43
2022-09-06T21:33:20.635Z,25.20
2022-09-06T21:36:33.258Z,24.78
2022-09-06T21:39:35.831Z,24.50
2022-09-06T21:42:40.352Z,25.02
2022-09-06T21:45:44.937Z,25.32
2022-09-06T21:48:49.943Z,25.40
2022-09-06T21:51:52.467Z,25.67
2022-09-06T21:54:54.911Z,25.27
2022-09-06T21:57:57.151Z,24.07
2022-09-06T22:01:04.967Z,22.85
2022-09-06T22:04:07.760Z,23.76
2022-09-06T22:07:12.273Z,25.03
2022-09-06T22:10:14.844Z,24.41
2022-09-06T22:13:19.667Z,23.79
2022-09-06T22:16:22.985Z,23.59
2022-09-06T22:19:25.994Z,23.20
2022-09-06T22:22:34.123Z,22.65
2022-09-06T22:25:36.987Z,21.55
2022-09-06T22:28:40.731Z,21.09
2022-09-06T22:31:43.897Z,22.55
2022-09-06T22:34:46.257Z,22.65
2022-09-06T22:37:50.003Z,22.47
2022-09-06T22:40:52.102Z,22.48
2022-09-06T22:43:54.924Z,23.26
2022-09-06T22:46:57.995Z,22.39
2022-09-06T22:50:00.481Z,21.53
2022-09-06T22:53:02.990Z,20.37
2022-09-06T22:56:07.271Z,19.72
2022-09-06T22:59:09.712Z,19.32
2022-09-06T23:02:12.722Z,19.75
2022-09-06T23:05:14.988Z,20.57
2022-09-06T23:08:17.482Z,20.43
2022-09-06T23:11:21.270Z,19.72
2022-09-06T23:14:23.914Z,19.36
2022-09-06T23:17:28.106Z,19.11
2022-09-06T23:20:31.137Z,18.79
2022-09-06T23:23:33.948Z,18.61
2022-09-06T23:26:37.568Z,18.60
2022-09-06T23:29:41.282Z,18.50
2022-09-06T23:32:43.536Z,18.52
2022-09-06T23:35:46.290Z,18.70
2022-09-06T23:38:48.965Z,18.60
2022-09-06T23:41:50.958Z,18.60
2022-09-06T23:44:57.756Z,19.03
2022-09-06T23:47:59.914Z,18.56
2022-09-06T23:51:02.274Z,18.25
2022-09-06T23:54:05.882Z,18.25
2022-09-06T23:57:08.429Z,18.37
